BAW5 EGLL-RJTT
Flight info
| Callsign | BAW5 |
|---|---|
| Flight time | N/A |
| Altitude | 33000 |
| Route | DET L6 DVR UL9 KONAN UL607 MATUG DCT GUBAX DCT KOMIB DCT VEMUT DCT PEPIK DCT BULEN L605 RIXEN UL605 NAMAN/N0488F350 UL605 YAVRU UL615 TIMOP DCT TBN UG261 NOLGA DCT BARAD M747 SUBUT T916 LEYLA N161 GASBI/K0904F350 N161 RELGE DCT MASAV N161 ARKAM/K0898F370 N161 SARIN/K0891S1130 A368 FKG W188 GOVSA W66 POTOT/K0889S1190 W66 DKO W69 HUR B339 LADIX W34 ANRAT A326 DONVO G597 AGAVO/N0483F390 Y644 EGOBA Y697 LANAT Y71 XAC |
| Aircraft | A35K/H-SDE2E3GHIJ1J3J4J5LM1ORWXY/LB1D1 |
Departure
| Time | 2026-05-05 08:08 |
|---|---|
| Airport | London Heathrow Airport (EGLL) |
Arrival
| Time | N/A |
|---|---|
| Airport | Tokyo Haneda International Airport (RJTT) |
| Time | Latitude | Longitude | Altitude | Speed | Heading |
|---|---|---|---|---|---|
| 2026-05-05 07:57 | 51.47144 | -0.47487 | 92 ft | 0 kts | 270° |
| 2026-05-05 08:00 | 51.47144 | -0.47468 | 92 ft | 4 kts | 272° |
| 2026-05-05 08:01 | 51.47141 | -0.47425 | 92 ft | 4 kts | 279° |
| 2026-05-05 08:01 | 51.47137 | -0.47383 | 91 ft | 4 kts | 271° |
| 2026-05-05 08:01 | 51.47138 | -0.47354 | 91 ft | 4 kts | 193° |
| 2026-05-05 08:01 | 51.47161 | -0.47353 | 92 ft | 4 kts | 179° |
| 2026-05-05 08:02 | 51.47188 | -0.47353 | 93 ft | 4 kts | 179° |
| 2026-05-05 08:02 | 51.47194 | -0.47353 | 93 ft | 0 kts | 179° |
| 2026-05-05 08:04 | 51.47193 | -0.47353 | 93 ft | 1 kts | 179° |
| 2026-05-05 08:04 | 51.47161 | -0.47353 | 92 ft | 8 kts | 179° |
| 2026-05-05 08:04 | 51.47097 | -0.47352 | 93 ft | 10 kts | 179° |
| 2026-05-05 08:04 | 51.47022 | -0.47350 | 92 ft | 11 kts | 179° |
| 2026-05-05 08:05 | 51.46940 | -0.47349 | 93 ft | 13 kts | 179° |
| 2026-05-05 08:05 | 51.46844 | -0.47348 | 94 ft | 16 kts | 180° |
| 2026-05-05 08:05 | 51.46732 | -0.47348 | 94 ft | 17 kts | 180° |
| 2026-05-05 08:05 | 51.46655 | -0.47447 | 96 ft | 16 kts | 263° |
| 2026-05-05 08:06 | 51.46654 | -0.47633 | 95 ft | 18 kts | 270° |
| 2026-05-05 08:06 | 51.46653 | -0.47857 | 92 ft | 22 kts | 269° |
| 2026-05-05 08:06 | 51.46653 | -0.48117 | 92 ft | 25 kts | 270° |
| 2026-05-05 08:06 | 51.46652 | -0.48360 | 92 ft | 12 kts | 270° |
| 2026-05-05 08:07 | 51.46614 | -0.48458 | 96 ft | 11 kts | 192° |
| 2026-05-05 08:07 | 51.46532 | -0.48467 | 93 ft | 12 kts | 182° |
| 2026-05-05 08:07 | 51.46476 | -0.48410 | 96 ft | 10 kts | 90° |
| 2026-05-05 08:07 | 51.46479 | -0.48243 | 94 ft | 34 kts | 89° |
| 2026-05-05 08:08 | 51.46481 | -0.47446 | 95 ft | 108 kts | 90° |
| 2026-05-05 08:08 | 51.46488 | -0.45887 | 94 ft | 171 kts | 89° |
| 2026-05-05 08:08 | 51.46466 | -0.43826 | 640 ft | 184 kts | 89° |
| 2026-05-05 08:08 | 51.46293 | -0.41789 | 1404 ft | 195 kts | 110° |
| 2026-05-05 08:09 | 51.45693 | -0.39837 | 2105 ft | 194 kts | 116° |
| 2026-05-05 08:09 | 51.45047 | -0.37927 | 2653 ft | 195 kts | 115° |
| 2026-05-05 08:09 | 51.44458 | -0.35962 | 3150 ft | 196 kts | 110° |
| 2026-05-05 08:09 | 51.43956 | -0.33922 | 3628 ft | 197 kts | 108° |
| 2026-05-05 08:10 | 51.43475 | -0.31812 | 3921 ft | 209 kts | 108° |
| 2026-05-05 08:10 | 51.42972 | -0.29540 | 4161 ft | 222 kts | 107° |
| 2026-05-05 08:10 | 51.42546 | -0.27118 | 4546 ft | 229 kts | 102° |
| 2026-05-05 08:10 | 51.42193 | -0.24628 | 5092 ft | 229 kts | 101° |
| 2026-05-05 08:11 | 51.41849 | -0.22114 | 5594 ft | 233 kts | 101° |
| 2026-05-05 08:11 | 51.41498 | -0.19554 | 6091 ft | 237 kts | 101° |
| 2026-05-05 08:11 | 51.41140 | -0.16954 | 6581 ft | 242 kts | 101° |
| 2026-05-05 08:11 | 51.40772 | -0.14262 | 6936 ft | 255 kts | 102° |
| 2026-05-05 08:12 | 51.40378 | -0.11393 | 7212 ft | 271 kts | 103° |
| 2026-05-05 08:12 | 51.39965 | -0.08448 | 7714 ft | 277 kts | 102° |
| 2026-05-05 08:12 | 51.39540 | -0.05411 | 8325 ft | 281 kts | 102° |
| 2026-05-05 08:12 | 51.39110 | -0.02334 | 8948 ft | 285 kts | 103° |
| 2026-05-05 08:13 | 51.38676 | 0.00776 | 9620 ft | 288 kts | 103° |
| 2026-05-05 08:13 | 51.38237 | 0.03915 | 10221 ft | 292 kts | 103° |
| 2026-05-05 08:13 | 51.37780 | 0.07176 | 10499 ft | 309 kts | 103° |
| 2026-05-05 08:13 | 51.37297 | 0.10621 | 10760 ft | 325 kts | 103° |
| 2026-05-05 08:14 | 51.36786 | 0.14242 | 11028 ft | 341 kts | 103° |
| 2026-05-05 08:14 | 51.36252 | 0.18032 | 11303 ft | 357 kts | 103° |
| 2026-05-05 08:14 | 51.35697 | 0.21970 | 11577 ft | 371 kts | 103° |
| 2026-05-05 08:14 | 51.35121 | 0.26074 | 11896 ft | 382 kts | 103° |
| 2026-05-05 08:15 | 51.34535 | 0.30253 | 12435 ft | 388 kts | 103° |
| 2026-05-05 08:15 | 51.33940 | 0.34474 | 13060 ft | 391 kts | 103° |
| 2026-05-05 08:15 | 51.33336 | 0.38728 | 13689 ft | 394 kts | 103° |
| 2026-05-05 08:15 | 51.32722 | 0.43027 | 14288 ft | 399 kts | 103° |
| 2026-05-05 08:16 | 51.32101 | 0.47374 | 14819 ft | 403 kts | 103° |
| 2026-05-05 08:16 | 51.31476 | 0.51740 | 15409 ft | 404 kts | 104° |
| 2026-05-05 08:16 | 51.30841 | 0.56141 | 15978 ft | 407 kts | 104° |
| 2026-05-05 08:16 | 51.30202 | 0.60557 | 16499 ft | 410 kts | 104° |
| 2026-05-05 08:17 | 51.29493 | 0.64983 | 17068 ft | 412 kts | 107° |
| 2026-05-05 08:17 | 51.28679 | 0.69373 | 17665 ft | 413 kts | 108° |
| 2026-05-05 08:17 | 51.27819 | 0.73778 | 18161 ft | 417 kts | 109° |
| 2026-05-05 08:17 | 51.26948 | 0.78221 | 18633 ft | 420 kts | 109° |
| 2026-05-05 08:18 | 51.26085 | 0.82695 | 19148 ft | 422 kts | 109° |
| 2026-05-05 08:18 | 51.25233 | 0.87183 | 19643 ft | 425 kts | 108° |
| 2026-05-05 08:18 | 51.24382 | 0.91725 | 20076 ft | 430 kts | 108° |
| 2026-05-05 08:18 | 51.23531 | 0.96302 | 20588 ft | 432 kts | 109° |
| 2026-05-05 08:19 | 51.22678 | 1.00906 | 21129 ft | 434 kts | 109° |
| 2026-05-05 08:19 | 51.21815 | 1.05550 | 21605 ft | 438 kts | 109° |
| 2026-05-05 08:19 | 51.20955 | 1.10168 | 22065 ft | 442 kts | 109° |
| 2026-05-05 08:19 | 51.20078 | 1.14866 | 22628 ft | 443 kts | 109° |
| 2026-05-05 08:20 | 51.19192 | 1.19594 | 23120 ft | 447 kts | 109° |
| 2026-05-05 08:20 | 51.18295 | 1.24357 | 23575 ft | 451 kts | 109° |
| 2026-05-05 08:20 | 51.17391 | 1.29153 | 23981 ft | 454 kts | 109° |
| 2026-05-05 08:20 | 51.16542 | 1.34011 | 24354 ft | 459 kts | 105° |
| 2026-05-05 08:21 | 51.16036 | 1.39060 | 24727 ft | 464 kts | 99° |
| 2026-05-05 08:21 | 51.15695 | 1.44185 | 25127 ft | 468 kts | 98° |
| 2026-05-05 08:21 | 51.15415 | 1.49379 | 25442 ft | 473 kts | 97° |
| 2026-05-05 08:21 | 51.15167 | 1.54628 | 25839 ft | 476 kts | 97° |
| 2026-05-05 08:22 | 51.14933 | 1.59823 | 26218 ft | 479 kts | 97° |
| 2026-05-05 08:22 | 51.14690 | 1.65127 | 26600 ft | 482 kts | 97° |
| 2026-05-05 08:22 | 51.14438 | 1.70472 | 26979 ft | 486 kts | 97° |
| 2026-05-05 08:22 | 51.14176 | 1.75847 | 27324 ft | 489 kts | 97° |
| 2026-05-05 08:23 | 51.13905 | 1.81257 | 27679 ft | 492 kts | 97° |
| 2026-05-05 08:23 | 51.13627 | 1.86693 | 28026 ft | 495 kts | 98° |
| 2026-05-05 08:23 | 51.13343 | 1.92168 | 28367 ft | 497 kts | 97° |
| 2026-05-05 08:23 | 51.13057 | 1.97649 | 28807 ft | 497 kts | 97° |
| 2026-05-05 08:24 | 51.12771 | 2.03137 | 29273 ft | 497 kts | 97° |
| 2026-05-05 08:24 | 51.12483 | 2.08608 | 29734 ft | 496 kts | 98° |
| 2026-05-05 08:24 | 51.12189 | 2.14076 | 30143 ft | 496 kts | 98° |
| 2026-05-05 08:24 | 51.11890 | 2.19545 | 30478 ft | 496 kts | 98° |
| 2026-05-05 08:25 | 51.11587 | 2.25014 | 30794 ft | 496 kts | 98° |
| 2026-05-05 08:25 | 51.11283 | 2.30479 | 31097 ft | 496 kts | 98° |
| 2026-05-05 08:25 | 51.10976 | 2.35942 | 31396 ft | 496 kts | 98° |
| 2026-05-05 08:25 | 51.10667 | 2.41420 | 31631 ft | 498 kts | 99° |
| 2026-05-05 08:26 | 51.10354 | 2.46920 | 31844 ft | 499 kts | 99° |
| 2026-05-05 08:26 | 51.10041 | 2.52406 | 32173 ft | 498 kts | 99° |
| 2026-05-05 08:26 | 51.09731 | 2.57822 | 32485 ft | 497 kts | 99° |
| 2026-05-05 08:26 | 51.09355 | 2.63273 | 32804 ft | 495 kts | 103° |
| 2026-05-05 08:27 | 51.08631 | 2.68617 | 32920 ft | 495 kts | 109° |
| 2026-05-05 08:27 | 51.07746 | 2.73928 | 32926 ft | 498 kts | 109° |
| 2026-05-05 08:27 | 51.05839 | 2.84519 | 32925 ft | 498 kts | 111° |
| 2026-05-05 08:28 | 51.03885 | 2.95079 | 32936 ft | 499 kts | 111° |
| 2026-05-05 08:28 | 51.01918 | 3.05724 | 32931 ft | 499 kts | 111° |
| 2026-05-05 08:29 | 50.99966 | 3.16302 | 32929 ft | 499 kts | 111° |
| 2026-05-05 08:30 | 50.97042 | 3.32061 | 32911 ft | 499 kts | 111° |
| 2026-05-05 08:30 | 50.95075 | 3.42586 | 32925 ft | 497 kts | 111° |
| 2026-05-05 08:31 | 50.93099 | 3.53088 | 32922 ft | 496 kts | 112° |
| 2026-05-05 08:31 | 50.91115 | 3.63564 | 32922 ft | 496 kts | 112° |
| 2026-05-05 08:32 | 50.89111 | 3.74031 | 32921 ft | 496 kts | 112° |
| 2026-05-05 08:32 | 50.87087 | 3.84472 | 32919 ft | 496 kts | 112° |
| 2026-05-05 08:33 | 50.85053 | 3.94913 | 32911 ft | 496 kts | 112° |
| 2026-05-05 08:33 | 50.83013 | 4.05350 | 32910 ft | 496 kts | 112° |
| 2026-05-05 08:34 | 50.80965 | 4.15775 | 32909 ft | 496 kts | 112° |
| 2026-05-05 08:34 | 50.78908 | 4.26190 | 32908 ft | 495 kts | 112° |
| 2026-05-05 08:35 | 50.76850 | 4.36557 | 32910 ft | 494 kts | 112° |
| 2026-05-05 08:35 | 50.74797 | 4.46837 | 32909 ft | 494 kts | 112° |
| 2026-05-05 08:36 | 50.72722 | 4.57174 | 32908 ft | 494 kts | 113° |
| 2026-05-05 08:36 | 50.70664 | 4.67517 | 32891 ft | 494 kts | 112° |
| 2026-05-05 08:37 | 50.68664 | 4.77892 | 32899 ft | 495 kts | 113° |
| 2026-05-05 08:37 | 50.66656 | 4.88273 | 32897 ft | 494 kts | 113° |
| 2026-05-05 08:38 | 50.64616 | 4.98607 | 32897 ft | 494 kts | 114° |
| 2026-05-05 08:38 | 50.62488 | 5.08889 | 32895 ft | 494 kts | 114° |
| 2026-05-05 08:39 | 50.60343 | 5.19165 | 32893 ft | 494 kts | 115° |
| 2026-05-05 08:39 | 50.58199 | 5.29442 | 32894 ft | 494 kts | 115° |
| 2026-05-05 08:40 | 50.56054 | 5.39725 | 32883 ft | 495 kts | 115° |
| 2026-05-05 08:40 | 50.53904 | 5.49985 | 32891 ft | 494 kts | 115° |
| 2026-05-05 08:41 | 50.51759 | 5.60248 | 32867 ft | 496 kts | 113° |
| 2026-05-05 08:41 | 50.50190 | 5.70903 | 32877 ft | 501 kts | 108° |
| 2026-05-05 08:42 | 50.48812 | 5.81545 | 32872 ft | 500 kts | 108° |
| 2026-05-05 08:42 | 50.47436 | 5.92231 | 32876 ft | 500 kts | 108° |
| 2026-05-05 08:43 | 50.46041 | 6.02919 | 32865 ft | 500 kts | 108° |
| 2026-05-05 08:43 | 50.44621 | 6.13634 | 32891 ft | 504 kts | 107° |
| 2026-05-05 08:44 | 50.43180 | 6.24424 | 32872 ft | 505 kts | 107° |
| 2026-05-05 08:44 | 50.41748 | 6.35220 | 32860 ft | 507 kts | 105° |
| 2026-05-05 08:45 | 50.40785 | 6.46208 | 32861 ft | 509 kts | 102° |
| 2026-05-05 08:45 | 50.39936 | 6.57246 | 32863 ft | 511 kts | 102° |
| 2026-05-05 08:46 | 50.39093 | 6.68312 | 32862 ft | 512 kts | 102° |
| 2026-05-05 08:46 | 50.38235 | 6.79378 | 32868 ft | 512 kts | 102° |
| 2026-05-05 08:47 | 50.37357 | 6.90449 | 32876 ft | 512 kts | 102° |
| 2026-05-05 08:47 | 50.36466 | 7.01513 | 32876 ft | 513 kts | 102° |
| 2026-05-05 08:48 | 50.35558 | 7.12607 | 32876 ft | 514 kts | 103° |
| 2026-05-05 08:48 | 50.34644 | 7.23630 | 32878 ft | 514 kts | 103° |
| 2026-05-05 08:49 | 50.33719 | 7.34716 | 32876 ft | 514 kts | 103° |
| 2026-05-05 08:49 | 50.32785 | 7.45800 | 32873 ft | 514 kts | 103° |
| 2026-05-05 08:50 | 50.31842 | 7.56874 | 32865 ft | 513 kts | 103° |
| 2026-05-05 08:50 | 50.30887 | 7.67946 | 32869 ft | 513 kts | 103° |
| 2026-05-05 08:51 | 50.29922 | 7.79000 | 32868 ft | 513 kts | 103° |
| 2026-05-05 08:51 | 50.28949 | 7.90044 | 32865 ft | 513 kts | 103° |
| 2026-05-05 08:52 | 50.28150 | 7.99301 | 32873 ft | 513 kts | 103° |
| 2026-05-05 08:52 | 50.27239 | 8.10267 | 32880 ft | 513 kts | 103° |
| 2026-05-05 08:53 | 50.26312 | 8.21320 | 32881 ft | 512 kts | 103° |
| 2026-05-05 08:53 | 50.25368 | 8.32355 | 32876 ft | 512 kts | 103° |
| 2026-05-05 08:54 | 50.24410 | 8.43394 | 32886 ft | 513 kts | 103° |
| 2026-05-05 08:54 | 50.23443 | 8.54419 | 32875 ft | 513 kts | 103° |
| 2026-05-05 08:55 | 50.22465 | 8.65452 | 32876 ft | 513 kts | 103° |
| 2026-05-05 08:55 | 50.21475 | 8.76477 | 32873 ft | 513 kts | 103° |
| 2026-05-05 08:56 | 50.20476 | 8.87490 | 32870 ft | 513 kts | 103° |
| 2026-05-05 08:56 | 50.19466 | 8.98505 | 32865 ft | 513 kts | 103° |
| 2026-05-05 08:57 | 50.18447 | 9.09511 | 32861 ft | 513 kts | 103° |
| 2026-05-05 08:57 | 50.17416 | 9.20521 | 32845 ft | 512 kts | 103° |
| 2026-05-05 08:58 | 50.16372 | 9.31526 | 32861 ft | 514 kts | 103° |
| 2026-05-05 08:58 | 50.15316 | 9.42553 | 32863 ft | 514 kts | 103° |
| 2026-05-05 08:59 | 50.14252 | 9.53576 | 32866 ft | 514 kts | 103° |
| 2026-05-05 08:59 | 50.13179 | 9.64583 | 32864 ft | 514 kts | 104° |
| 2026-05-05 09:00 | 50.12101 | 9.75523 | 32866 ft | 514 kts | 103° |
| 2026-05-05 09:00 | 50.11005 | 9.86517 | 32871 ft | 513 kts | 103° |
| 2026-05-05 09:01 | 50.09901 | 9.97496 | 32854 ft | 513 kts | 103° |
| 2026-05-05 09:01 | 50.08785 | 10.08485 | 32852 ft | 514 kts | 104° |
| 2026-05-05 09:02 | 50.07659 | 10.19465 | 32855 ft | 514 kts | 103° |
| 2026-05-05 09:02 | 50.06518 | 10.30452 | 32871 ft | 514 kts | 104° |
| 2026-05-05 09:03 | 50.05313 | 10.41422 | 32864 ft | 514 kts | 104° |
| 2026-05-05 09:03 | 50.04090 | 10.52374 | 32861 ft | 514 kts | 104° |
| 2026-05-05 09:04 | 50.02866 | 10.63325 | 32865 ft | 514 kts | 104° |
| 2026-05-05 09:04 | 50.01637 | 10.74266 | 32868 ft | 513 kts | 104° |
| 2026-05-05 09:05 | 50.00400 | 10.85189 | 32867 ft | 513 kts | 104° |
| 2026-05-05 09:05 | 49.99151 | 10.96117 | 32861 ft | 513 kts | 104° |
| 2026-05-05 09:06 | 49.97891 | 11.07052 | 32861 ft | 514 kts | 104° |
| 2026-05-05 09:06 | 49.96619 | 11.17988 | 32859 ft | 515 kts | 104° |
| 2026-05-05 09:07 | 49.95337 | 11.28920 | 32861 ft | 515 kts | 104° |
| 2026-05-05 09:07 | 49.94054 | 11.39780 | 32853 ft | 515 kts | 104° |
| 2026-05-05 09:08 | 49.92752 | 11.50703 | 32852 ft | 514 kts | 105° |
| 2026-05-05 09:08 | 49.91444 | 11.61581 | 32852 ft | 513 kts | 105° |
| 2026-05-05 09:09 | 49.90124 | 11.72453 | 32847 ft | 513 kts | 105° |
| 2026-05-05 09:09 | 49.88796 | 11.83313 | 32844 ft | 513 kts | 105° |
| 2026-05-05 09:10 | 49.87458 | 11.94165 | 32840 ft | 512 kts | 105° |
| 2026-05-05 09:10 | 49.86114 | 12.04997 | 32841 ft | 511 kts | 105° |
| 2026-05-05 09:11 | 49.84758 | 12.15818 | 32840 ft | 511 kts | 105° |
| 2026-05-05 09:11 | 49.83393 | 12.26621 | 32838 ft | 511 kts | 105° |
| 2026-05-05 09:12 | 49.82016 | 12.37428 | 32835 ft | 511 kts | 105° |
| 2026-05-05 09:12 | 49.80458 | 12.48137 | 32833 ft | 508 kts | 110° |
| 2026-05-05 09:13 | 49.78438 | 12.58608 | 32841 ft | 508 kts | 111° |
| 2026-05-05 09:13 | 49.76342 | 12.69025 | 32837 ft | 508 kts | 111° |
| 2026-05-05 09:14 | 49.74231 | 12.79442 | 32842 ft | 508 kts | 111° |
| 2026-05-05 09:14 | 49.72118 | 12.89868 | 32843 ft | 508 kts | 111° |
| 2026-05-05 09:15 | 49.70016 | 13.00204 | 32842 ft | 508 kts | 111° |
| 2026-05-05 09:15 | 49.67889 | 13.10617 | 32846 ft | 508 kts | 111° |
| 2026-05-05 09:16 | 49.65753 | 13.21012 | 32856 ft | 507 kts | 111° |
| 2026-05-05 09:16 | 49.63612 | 13.31376 | 32857 ft | 507 kts | 111° |
| 2026-05-05 09:17 | 49.61461 | 13.41728 | 32854 ft | 507 kts | 111° |
| 2026-05-05 09:17 | 49.59301 | 13.52074 | 32851 ft | 507 kts | 111° |
| 2026-05-05 09:18 | 49.57135 | 13.62402 | 32841 ft | 507 kts | 111° |
| 2026-05-05 09:18 | 49.54958 | 13.72728 | 32841 ft | 507 kts | 111° |
| 2026-05-05 09:19 | 49.52767 | 13.83061 | 32841 ft | 507 kts | 111° |
| 2026-05-05 09:19 | 49.50573 | 13.93365 | 32846 ft | 507 kts | 111° |
| 2026-05-05 09:20 | 49.48382 | 14.03594 | 32845 ft | 507 kts | 111° |
| 2026-05-05 09:20 | 49.46163 | 14.13905 | 32849 ft | 508 kts | 111° |
| 2026-05-05 09:21 | 49.43938 | 14.24198 | 32841 ft | 508 kts | 111° |
| 2026-05-05 09:21 | 49.41702 | 14.34485 | 32842 ft | 508 kts | 111° |
| 2026-05-05 09:22 | 49.39455 | 14.44765 | 32852 ft | 508 kts | 111° |
| 2026-05-05 09:22 | 49.37203 | 14.55026 | 32851 ft | 507 kts | 111° |
| 2026-05-05 09:23 | 49.34944 | 14.65257 | 32831 ft | 507 kts | 111° |
| 2026-05-05 09:23 | 49.32673 | 14.75493 | 32834 ft | 507 kts | 111° |
| 2026-05-05 09:24 | 49.30398 | 14.85707 | 32848 ft | 507 kts | 111° |
| 2026-05-05 09:24 | 49.28117 | 14.95900 | 32843 ft | 505 kts | 111° |
| 2026-05-05 09:25 | 49.25829 | 15.06065 | 32842 ft | 505 kts | 111° |
| 2026-05-05 09:25 | 49.23535 | 15.16212 | 32843 ft | 505 kts | 111° |
| 2026-05-05 09:26 | 49.21233 | 15.26347 | 32846 ft | 505 kts | 111° |
| 2026-05-05 09:26 | 49.18939 | 15.36407 | 32847 ft | 503 kts | 111° |
| 2026-05-05 09:27 | 49.16625 | 15.46492 | 32858 ft | 503 kts | 111° |
| 2026-05-05 09:27 | 49.14301 | 15.56584 | 32858 ft | 503 kts | 111° |
| 2026-05-05 09:28 | 49.11968 | 15.66655 | 32852 ft | 503 kts | 112° |
| 2026-05-05 09:28 | 49.09634 | 15.76690 | 32868 ft | 501 kts | 112° |
| 2026-05-05 09:29 | 49.07299 | 15.86688 | 32865 ft | 500 kts | 112° |
| 2026-05-05 09:29 | 49.04954 | 15.96677 | 32881 ft | 500 kts | 112° |
| 2026-05-05 09:30 | 49.02598 | 16.06660 | 32878 ft | 500 kts | 112° |
| 2026-05-05 09:30 | 49.00239 | 16.16616 | 32881 ft | 499 kts | 112° |
| 2026-05-05 09:31 | 48.97874 | 16.26552 | 32880 ft | 499 kts | 112° |
| 2026-05-05 09:31 | 48.95501 | 16.36477 | 32875 ft | 499 kts | 112° |
| 2026-05-05 09:32 | 48.93120 | 16.46389 | 32874 ft | 499 kts | 112° |
| 2026-05-05 09:32 | 48.90735 | 16.56271 | 32873 ft | 499 kts | 112° |
| 2026-05-05 09:33 | 48.88336 | 16.66166 | 32873 ft | 499 kts | 113° |
| 2026-05-05 09:33 | 48.85928 | 16.76057 | 32873 ft | 499 kts | 113° |
| 2026-05-05 09:34 | 48.83514 | 16.85931 | 32852 ft | 499 kts | 114° |
| 2026-05-05 09:34 | 48.81090 | 16.95802 | 32866 ft | 499 kts | 114° |
| 2026-05-05 09:35 | 48.78562 | 17.05600 | 32879 ft | 497 kts | 119° |
| 2026-05-05 09:35 | 48.72939 | 17.18552 | 32882 ft | 493 kts | 130° |
| 2026-05-05 09:36 | 48.68827 | 17.26859 | 32882 ft | 493 kts | 131° |
| 2026-05-05 09:36 | 48.64700 | 17.35143 | 32888 ft | 493 kts | 130° |
| 2026-05-05 09:37 | 48.60578 | 17.43445 | 32887 ft | 494 kts | 130° |
| 2026-05-05 09:37 | 48.56458 | 17.51747 | 32889 ft | 494 kts | 130° |
| 2026-05-05 09:38 | 48.52337 | 17.60033 | 32893 ft | 494 kts | 131° |
| 2026-05-05 09:38 | 48.48199 | 17.68321 | 32896 ft | 495 kts | 130° |
| 2026-05-05 09:39 | 48.44055 | 17.76598 | 32903 ft | 495 kts | 131° |
| 2026-05-05 09:39 | 48.39904 | 17.84859 | 32906 ft | 495 kts | 131° |
| 2026-05-05 09:40 | 48.35749 | 17.93107 | 32908 ft | 495 kts | 131° |
| 2026-05-05 09:40 | 48.31577 | 18.01360 | 32921 ft | 496 kts | 131° |
| 2026-05-05 09:41 | 48.27398 | 18.09603 | 32911 ft | 496 kts | 130° |
| 2026-05-05 09:41 | 48.23217 | 18.17828 | 32919 ft | 495 kts | 131° |
| 2026-05-05 09:42 | 48.19033 | 18.26033 | 32923 ft | 495 kts | 131° |
| 2026-05-05 09:42 | 48.14837 | 18.34234 | 32921 ft | 497 kts | 131° |
| 2026-05-05 09:43 | 48.11336 | 18.41057 | 32950 ft | 498 kts | 131° |